Time;durP1;ratioP1;P1;durP2;ratioP2;P2;SDS_P1;SDS_P2;PMS_P1;PMS_P2;Temp;Humidity;BMP_temperature;BMP_pressure;BME280_temperature;BME280_humidity;BME280_pressure;Samples;Min_cycle;Max_cycle;Signal;HPM_P1;HPM_P2
2021/06/29 00:02:23;;;;;;;;;;;;;;;26.23;41.15;100367.63;5120382;28;19915;-70
2021/06/29 00:05:08;;;;;;;;;;;;;;;26.29;41.41;100365.13;5119969;28;19915;-69
2021/06/29 00:07:52;;;;;;;;;;;;;;;26.29;41.43;100360.34;5116582;28;19924;-68
2021/06/29 00:10:36;;;;;;;;;;;;;;;26.35;41.15;100358.63;5119976;28;20299;-70
2021/06/29 00:13:22;;;;;;;;;;;;;;;26.37;41.50;100364.53;5120135;28;20383;-71
2021/06/29 00:16:06;;;;;;;;;;;;;;;26.31;41.66;100359.91;5119936;28;20311;-71
2021/06/29 00:18:51;;;;;;;;;;;;;;;26.20;41.75;100359.31;5113680;28;19916;-69
2021/06/29 00:21:35;;;;;;;;;;;;;;;26.30;41.33;100361.13;5119834;28;19915;-70
2021/06/29 00:24:20;;;;;;;;;;;;;;;26.32;41.13;100353.88;5119960;28;19916;-69
2021/06/29 00:27:05;;;;;;;;;;;;;;;26.31;41.17;100352.31;5118690;28;19915;-70
2021/06/29 00:29:49;;;;;;;;;;;;;;;26.43;40.89;100353.66;5117389;28;19920;-71
2021/06/29 00:32:35;;;;;;;;;;;;;;;26.35;41.10;100349.47;5119891;28;19916;-70
2021/06/29 00:35:19;;;;;;;;;;;;;;;26.43;40.10;100352.88;5119834;28;19916;-70
2021/06/29 00:38:04;;;;;;;;;;;;;;;26.32;39.27;100353.88;5115439;28;19915;-70
2021/06/29 00:40:49;;;;;;;;;;;;;;;26.22;40.25;100354.91;5119317;28;19916;-70
2021/06/29 00:43:34;;;;;;;;;;;;;;;25.86;41.40;100357.59;5119876;28;19915;-70
2021/06/29 00:46:19;;;;;;;;;;;;;;;25.92;42.93;100355.09;5119649;28;19916;-71
2021/06/29 00:49:03;;;;;;;;;;;;;;;25.32;44.45;100347.84;5119400;28;19924;-68
2021/06/29 00:51:48;;;;;;;;;;;;;;;25.47;44.01;100340.81;5104282;28;20291;-68
2021/06/29 00:54:34;;;;;;;;;;;;;;;25.74;43.04;100354.66;5119451;28;20375;-69
2021/06/29 00:57:18;;;;;;;;;;;;;;;25.62;42.92;100355.28;5117484;28;19915;-70
2021/06/29 01:00:05;;;;;;;;;;;;;;;25.46;42.70;100347.59;5119317;28;19919;-70
2021/06/29 01:02:49;;;;;;;;;;;;;;;25.50;42.51;100343.53;5119811;28;20299;-71
2021/06/29 01:05:34;;;;;;;;;;;;;;;25.58;42.30;100351.78;5119239;28;19920;-71
2021/06/29 01:08:19;;;;;;;;;;;;;;;25.63;42.34;100348.50;5114675;28;19920;-71
2021/06/29 01:11:04;;;;;;;;;;;;;;;25.83;43.07;100350.09;5119210;28;19916;-71
2021/06/29 01:13:49;;;;;;;;;;;;;;;25.96;42.87;100353.03;5119538;28;19916;-71
2021/06/29 01:16:33;;;;;;;;;;;;;;;26.04;42.77;100348.09;5119172;28;19920;-71
2021/06/29 01:19:24;;;;;;;;;;;;;;;25.82;42.95;100359.66;5119407;28;19915;-70
2021/06/29 01:22:10;;;;;;;;;;;;;;;25.93;42.21;100353.88;5119039;28;19916;-68
2021/06/29 01:24:57;;;;;;;;;;;;;;;25.67;43.59;100346.44;5119526;28;19916;-69
2021/06/29 01:33:12;;;;;;;;;;;;;;;24.83;45.65;100335.53;5119192;28;19915;-69
2021/06/29 01:35:57;;;;;;;;;;;;;;;24.94;45.48;100336.19;5119272;28;19915;-68
2021/06/29 01:38:42;;;;;;;;;;;;;;;24.95;45.75;100324.59;5113258;28;19916;-68
2021/06/29 01:41:27;;;;;;;;;;;;;;;24.22;47.36;100319.72;5119197;28;19916;-67
2021/06/29 01:44:18;;;;;;;;;;;;;;;23.78;48.94;100314.28;5119143;28;19916;-68
2021/06/29 01:47:04;;;;;;;;;;;;;;;23.71;48.81;100309.63;5117733;28;20287;-69
2021/06/29 01:49:48;;;;;;;;;;;;;;;24.15;47.66;100305.09;5119161;28;19919;-69
2021/06/29 01:52:33;;;;;;;;;;;;;;;24.46;47.76;100303.91;5119483;28;19920;-68
2021/06/29 01:55:17;;;;;;;;;;;;;;;24.33;47.73;100305.66;5122821;28;19916;-68
2021/06/29 01:58:03;;;;;;;;;;;;;;;24.04;48.50;100307.22;5118657;28;20368;-68
2021/06/29 02:00:47;;;;;;;;;;;;;;;23.86;49.79;100311.03;5122603;28;19915;-69
2021/06/29 02:03:32;;;;;;;;;;;;;;;23.93;48.83;100299.03;5122545;28;19916;-67
2021/06/29 02:06:17;;;;;;;;;;;;;;;23.60;49.82;100303.38;5121208;28;19920;-68
2021/06/29 02:09:01;;;;;;;;;;;;;;;23.75;49.61;100304.00;5114953;28;20389;-67
2021/06/29 02:11:45;;;;;;;;;;;;;;;23.64;50.61;100303.34;5122459;28;19916;-67
2021/06/29 02:14:30;;;;;;;;;;;;;;;23.62;50.08;100316.88;5122481;28;19916;-69
2021/06/29 02:17:14;;;;;;;;;;;;;;;24.26;48.85;100316.88;5120576;28;19916;-68
2021/06/29 02:19:59;;;;;;;;;;;;;;;24.43;48.35;100324.19;5115496;28;20287;-69
2021/06/29 02:22:45;;;;;;;;;;;;;;;24.67;48.08;100320.25;5122528;28;19920;-68
2021/06/29 02:25:30;;;;;;;;;;;;;;;24.52;48.03;100324.47;5122057;28;20279;-68
2021/06/29 02:28:15;;;;;;;;;;;;;;;24.94;47.77;100334.16;5117494;28;19919;-68
2021/06/29 02:30:59;;;;;;;;;;;;;;;24.85;47.69;100344.22;5116221;28;19920;-69
2021/06/29 02:33:44;;;;;;;;;;;;;;;24.86;47.02;100337.44;5110836;28;19920;-70
2021/06/29 02:36:28;;;;;;;;;;;;;;;24.71;47.25;100343.25;5094709;28;19916;-70
2021/06/29 02:39:12;;;;;;;;;;;;;;;24.82;47.72;100331.94;5101561;28;19915;-71
2021/06/29 02:41:57;;;;;;;;;;;;;;;24.96;47.62;100344.88;5101375;28;19916;-71
2021/06/29 02:44:51;;;;;;;;;;;;;;;24.91;46.71;100337.00;5101808;28;20380;-70
2021/06/29 02:48:08;;;;;;;;;;;;;;;24.36;47.86;100345.75;5096071;28;19916;-68
2021/06/29 02:50:53;;;;;;;;;;;;;;;24.36;47.73;100343.75;5102532;28;19923;-68
2021/06/29 02:53:38;;;;;;;;;;;;;;;24.57;48.22;100351.78;5119616;27;19924;-68
2021/06/29 02:56:39;;;;;;;;;;;;;;;23.63;49.74;100352.53;5101006;28;20320;-70
2021/06/29 02:59:24;;;;;;;;;;;;;;;23.95;48.63;100343.84;5115093;27;19920;-71
2021/06/29 03:02:08;;;;;;;;;;;;;;;24.28;48.70;100348.59;5123043;27;19916;-69
2021/06/29 03:04:53;;;;;;;;;;;;;;;24.68;47.02;100354.44;5115705;27;19915;-69
2021/06/29 03:07:38;;;;;;;;;;;;;;;24.74;47.16;100349.19;5125779;27;19920;-70
2021/06/29 03:10:22;;;;;;;;;;;;;;;24.28;47.69;100347.81;5124476;27;20410;-70
2021/06/29 03:13:06;;;;;;;;;;;;;;;24.21;47.82;100347.91;5129242;27;19915;-69
2021/06/29 03:15:51;;;;;;;;;;;;;;;24.09;48.31;100349.22;5101822;27;20302;-69
2021/06/29 03:18:37;;;;;;;;;;;;;;;23.93;48.73;100343.47;5116864;27;19999;-70
2021/06/29 03:21:23;;;;;;;;;;;;;;;24.01;50.08;100346.97;5138435;27;19915;-69
2021/06/29 03:24:08;;;;;;;;;;;;;;;24.20;49.88;100343.56;5120819;27;19923;-69
2021/06/29 03:26:53;;;;;;;;;;;;;;;24.27;49.63;100346.25;5124686;27;19915;-68
2021/06/29 03:29:38;;;;;;;;;;;;;;;24.45;49.67;100349.56;5133111;27;19923;-70
2021/06/29 03:32:22;;;;;;;;;;;;;;;24.49;49.01;100341.97;5136732;27;19915;-68
2021/06/29 03:35:08;;;;;;;;;;;;;;;24.62;48.93;100351.31;5122551;27;20370;-69
2021/06/29 03:37:53;;;;;;;;;;;;;;;24.57;49.37;100348.22;5129384;27;19937;-69
2021/06/29 03:40:37;;;;;;;;;;;;;;;24.61;49.46;100348.97;5127498;27;19915;-70
2021/06/29 03:43:22;;;;;;;;;;;;;;;24.62;49.54;100348.53;5128580;27;19916;-70
2021/06/29 03:46:06;;;;;;;;;;;;;;;24.67;49.10;100345.28;5123212;27;19916;-70
2021/06/29 03:48:53;;;;;;;;;;;;;;;24.66;49.34;100346.50;5102053;27;19920;-68
2021/06/29 03:51:37;;;;;;;;;;;;;;;24.68;49.08;100355.22;5125106;27;19919;-68
2021/06/29 03:54:22;;;;;;;;;;;;;;;24.73;48.88;100350.38;5114534;27;19917;-70
2021/06/29 03:57:07;;;;;;;;;;;;;;;24.76;48.98;100341.19;5121761;27;19916;-69
2021/06/29 03:59:54;;;;;;;;;;;;;;;24.78;48.52;100339.56;5131191;27;19915;-69
2021/06/29 04:02:39;;;;;;;;;;;;;;;24.91;48.43;100343.34;5125711;27;19915;-69
2021/06/29 04:05:24;;;;;;;;;;;;;;;24.91;48.17;100345.34;5111702;27;20379;-70
2021/06/29 04:08:08;;;;;;;;;;;;;;;24.95;47.78;100351.63;5116728;27;19919;-70
2021/06/29 04:10:53;;;;;;;;;;;;;;;24.95;47.73;100348.84;5114416;27;19920;-69
2021/06/29 04:13:38;;;;;;;;;;;;;;;25.00;47.68;100348.38;5134473;27;19919;-70
2021/06/29 04:16:23;;;;;;;;;;;;;;;25.04;47.31;100349.88;5122649;27;19915;-70
2021/06/29 04:19:07;;;;;;;;;;;;;;;25.10;47.37;100347.41;5126033;27;19929;-68
2021/06/29 04:21:53;;;;;;;;;;;;;;;25.13;47.22;100346.59;5120150;27;19915;-69
2021/06/29 04:24:37;;;;;;;;;;;;;;;25.17;46.98;100347.31;5129473;27;19919;-68
2021/06/29 04:27:22;;;;;;;;;;;;;;;25.20;47.18;100354.81;5121010;27;19915;-69
2021/06/29 04:30:09;;;;;;;;;;;;;;;25.22;47.17;100355.19;5116927;27;20283;-68
2021/06/29 04:32:54;;;;;;;;;;;;;;;25.27;47.08;100353.91;5125555;27;19919;-68
2021/06/29 04:35:38;;;;;;;;;;;;;;;25.29;46.50;100343.94;5116948;27;19920;-69
2021/06/29 04:38:23;;;;;;;;;;;;;;;25.37;46.83;100353.72;5108579;27;19915;-69
2021/06/29 04:41:07;;;;;;;;;;;;;;;25.42;46.93;100349.66;5102092;28;19915;-70
2021/06/29 04:43:52;;;;;;;;;;;;;;;25.48;46.60;100351.53;5123786;27;19916;-70
2021/06/29 04:46:37;;;;;;;;;;;;;;;25.58;46.96;100351.78;5125515;27;20279;-70
2021/06/29 04:49:26;;;;;;;;;;;;;;;25.66;46.82;100361.56;5130562;27;20287;-70
2021/06/29 04:52:10;;;;;;;;;;;;;;;25.77;46.14;100370.53;5131520;27;19916;-68
2021/06/29 04:54:55;;;;;;;;;;;;;;;25.83;46.16;100377.19;5105608;28;20383;-68
2021/06/29 04:57:39;;;;;;;;;;;;;;;26.06;45.60;100377.09;5092821;28;19919;-70
2021/06/29 05:00:25;;;;;;;;;;;;;;;26.17;45.47;100380.47;5109113;27;19916;-69
2021/06/29 05:03:09;;;;;;;;;;;;;;;26.19;45.41;100378.03;5124947;27;20387;-69
2021/06/29 05:05:54;;;;;;;;;;;;;;;26.00;45.35;100390.00;5111625;27;19920;-69
2021/06/29 05:08:38;;;;;;;;;;;;;;;26.06;45.91;100385.47;5125951;27;19919;-70
2021/06/29 05:11:23;;;;;;;;;;;;;;;26.18;45.32;100382.03;5120227;27;20283;-69
2021/06/29 05:14:08;;;;;;;;;;;;;;;26.26;45.23;100377.16;5123257;27;20383;-71
2021/06/29 05:16:53;;;;;;;;;;;;;;;26.24;44.74;100377.56;5125987;27;19915;-69
2021/06/29 05:19:39;;;;;;;;;;;;;;;26.32;44.53;100375.41;5128551;27;19938;-68
2021/06/29 05:22:23;;;;;;;;;;;;;;;26.38;44.11;100373.69;5129697;27;20287;-71
2021/06/29 05:25:09;;;;;;;;;;;;;;;26.43;43.42;100370.38;5098925;28;19916;-70
2021/06/29 05:27:53;;;;;;;;;;;;;;;26.46;43.12;100369.53;5100756;27;19916;-71
2021/06/29 05:30:38;;;;;;;;;;;;;;;26.46;43.10;100371.53;5114486;27;19927;-70
2021/06/29 05:33:22;;;;;;;;;;;;;;;26.56;42.87;100362.94;5137931;27;19915;-70
2021/06/29 05:36:07;;;;;;;;;;;;;;;26.55;42.86;100364.16;5129825;27;20286;-72
2021/06/29 05:38:51;;;;;;;;;;;;;;;26.50;42.30;100370.25;5120971;27;19916;-71
2021/06/29 05:41:36;;;;;;;;;;;;;;;26.58;42.20;100368.06;5125046;27;19924;-73
2021/06/29 05:44:20;;;;;;;;;;;;;;;26.65;42.16;100379.06;5118851;27;19916;-71
2021/06/29 05:47:08;;;;;;;;;;;;;;;26.75;42.05;100376.03;5115607;27;19916;-72
2021/06/29 05:49:53;;;;;;;;;;;;;;;26.82;41.45;100372.28;5130766;27;20295;-72
2021/06/29 05:52:38;;;;;;;;;;;;;;;26.85;40.12;100379.81;5118759;27;19920;-70
2021/06/29 05:55:23;;;;;;;;;;;;;;;26.91;39.76;100375.31;5125133;27;20366;-68
2021/06/29 05:58:07;;;;;;;;;;;;;;;27.00;37.88;100381.06;5126514;27;19916;-70
2021/06/29 06:00:53;;;;;;;;;;;;;;;27.08;37.85;100379.66;5126281;27;19915;-69
2021/06/29 06:03:37;;;;;;;;;;;;;;;27.17;37.72;100385.41;5116774;27;19920;-68
2021/06/29 06:06:22;;;;;;;;;;;;;;;27.24;38.18;100385.25;5131384;27;19923;-70
2021/06/29 06:09:06;;;;;;;;;;;;;;;27.27;39.11;100382.81;5127425;27;19919;-69
2021/06/29 06:11:51;;;;;;;;;;;;;;;27.27;38.91;100391.97;5120046;27;19916;-69
2021/06/29 06:14:35;;;;;;;;;;;;;;;27.43;38.07;100397.53;5123390;27;20394;-69
2021/06/29 06:17:19;;;;;;;;;;;;;;;27.50;38.78;100388.22;5128828;27;19916;-69
2021/06/29 06:20:05;;;;;;;;;;;;;;;27.59;37.29;100391.97;5127729;27;19919;-69
2021/06/29 06:22:50;;;;;;;;;;;;;;;27.68;37.91;100393.34;5120766;27;19916;-69
2021/06/29 06:25:35;;;;;;;;;;;;;;;27.69;37.19;100387.31;5124190;27;20374;-69
2021/06/29 06:28:19;;;;;;;;;;;;;;;27.76;37.80;100381.53;5125799;27;19927;-69
2021/06/29 06:31:04;;;;;;;;;;;;;;;27.74;38.57;100392.38;5126036;27;19915;-69
2021/06/29 06:33:48;;;;;;;;;;;;;;;27.72;38.64;100394.84;5124536;27;19916;-69
2021/06/29 06:36:33;;;;;;;;;;;;;;;27.92;39.09;100398.28;5125844;27;19919;-70
2021/06/29 06:39:17;;;;;;;;;;;;;;;27.95;38.99;100400.16;5123351;27;19916;-69
2021/06/29 06:42:02;;;;;;;;;;;;;;;27.87;39.08;100401.59;5125653;27;19916;-69
2021/06/29 06:44:47;;;;;;;;;;;;;;;28.14;39.96;100408.91;5122795;27;19915;-69
2021/06/29 06:47:31;;;;;;;;;;;;;;;28.11;42.17;100404.94;5124781;27;20173;-70
2021/06/29 06:50:16;;;;;;;;;;;;;;;28.30;41.20;100401.19;5124485;27;20294;-69
2021/06/29 06:53:01;;;;;;;;;;;;;;;28.41;41.27;100401.69;5129980;27;19915;-70
2021/06/29 06:55:45;;;;;;;;;;;;;;;28.41;41.57;100403.69;5128397;27;20374;-70
2021/06/29 06:58:29;;;;;;;;;;;;;;;28.52;41.50;100404.16;5126416;27;19915;-69
2021/06/29 07:01:16;;;;;;;;;;;;;;;28.71;42.95;100386.38;5124808;27;19916;-70
2021/06/29 07:04:00;;;;;;;;;;;;;;;28.60;41.37;100382.34;5128014;27;20367;-69
2021/06/29 07:06:44;;;;;;;;;;;;;;;28.84;43.20;100378.81;5126563;27;19920;-69
2021/06/29 07:09:29;;;;;;;;;;;;;;;28.70;42.83;100376.41;5120770;27;19923;-69
2021/06/29 07:12:15;;;;;;;;;;;;;;;28.55;40.74;100366.88;5125696;27;20562;-69
2021/06/29 07:14:59;;;;;;;;;;;;;;;28.51;43.67;100357.81;5124539;27;19915;-70
2021/06/29 07:17:44;;;;;;;;;;;;;;;28.81;42.87;100368.50;5124423;27;19919;-70
2021/06/29 07:20:28;;;;;;;;;;;;;;;28.74;42.01;100379.94;5124927;27;20287;-70
2021/06/29 07:23:13;;;;;;;;;;;;;;;28.73;43.82;100381.16;5123956;27;20371;-70
2021/06/29 07:25:58;;;;;;;;;;;;;;;28.90;42.66;100379.03;5122792;27;19916;-69
2021/06/29 07:28:42;;;;;;;;;;;;;;;29.04;43.07;100384.16;5111019;27;19928;-70
2021/06/29 07:31:26;;;;;;;;;;;;;;;28.85;42.19;100380.34;5118034;27;19916;-71
2021/06/29 07:34:11;;;;;;;;;;;;;;;29.06;41.40;100380.91;5123240;27;19915;-70
2021/06/29 07:36:56;;;;;;;;;;;;;;;28.82;42.29;100381.25;5126992;27;19915;-68
2021/06/29 07:39:40;;;;;;;;;;;;;;;28.95;41.76;100386.09;5110527;27;19916;-69
2021/06/29 07:42:25;;;;;;;;;;;;;;;28.83;42.21;100390.44;5126645;27;19919;-69
2021/06/29 07:45:09;;;;;;;;;;;;;;;29.15;40.24;100379.00;5123176;27;19916;-69
2021/06/29 07:47:56;;;;;;;;;;;;;;;28.94;40.92;100379.69;5124329;27;20286;-70
2021/06/29 07:50:41;;;;;;;;;;;;;;;29.25;40.99;100375.06;5124869;27;20328;-70
2021/06/29 07:53:25;;;;;;;;;;;;;;;29.26;39.47;100361.81;5125093;27;20563;-70
2021/06/29 07:56:19;;;;;;;;;;;;;;;29.34;39.66;100357.59;5111261;27;20305;-71
2021/06/29 07:59:04;;;;;;;;;;;;;;;29.20;40.12;100367.22;5123708;27;19915;-71
2021/06/29 08:01:48;;;;;;;;;;;;;;;29.54;39.50;100366.50;5120229;27;19916;-71
2021/06/29 08:04:33;;;;;;;;;;;;;;;29.65;39.91;100366.91;5125535;27;20391;-70
2021/06/29 08:07:18;;;;;;;;;;;;;;;29.77;38.70;100357.63;5124533;27;19924;-68
2021/06/29 08:10:04;;;;;;;;;;;;;;;29.84;37.91;100364.22;5124488;27;20394;-69
2021/06/29 08:12:51;;;;;;;;;;;;;;;29.87;37.71;100364.09;5125008;27;19916;-69
2021/06/29 08:15:35;;;;;;;;;;;;;;;30.14;34.34;100363.53;5124138;27;19916;-70
2021/06/29 08:18:20;;;;;;;;;;;;;;;29.99;36.71;100357.69;5123573;27;19916;-71
2021/06/29 08:21:05;;;;;;;;;;;;;;;30.05;36.31;100350.25;5128427;27;19919;-70
2021/06/29 08:23:50;;;;;;;;;;;;;;;29.99;37.17;100345.69;5120351;27;20379;-70
2021/06/29 08:26:34;;;;;;;;;;;;;;;30.11;37.56;100351.22;5122809;27;20116;-70
2021/06/29 08:29:19;;;;;;;;;;;;;;;30.24;35.43;100341.94;5124849;27;19927;-71
2021/06/29 08:32:03;;;;;;;;;;;;;;;30.22;35.59;100348.03;5126466;27;19927;-71
2021/06/29 08:34:48;;;;;;;;;;;;;;;30.21;35.65;100352.06;5120864;27;19915;-70
2021/06/29 08:37:33;;;;;;;;;;;;;;;30.44;34.87;100359.97;5120387;27;19916;-69
2021/06/29 08:40:17;;;;;;;;;;;;;;;30.52;35.65;100366.13;5124181;27;19916;-70
2021/06/29 08:43:03;;;;;;;;;;;;;;;30.17;36.59;100351.41;5123519;27;19916;-70
2021/06/29 08:45:49;;;;;;;;;;;;;;;30.28;35.23;100356.59;5128180;27;19915;-70
2021/06/29 08:48:34;;;;;;;;;;;;;;;30.00;36.19;100352.84;5123703;27;19916;-68
2021/06/29 08:51:18;;;;;;;;;;;;;;;30.23;35.56;100341.16;5128650;27;20379;-70
2021/06/29 08:54:03;;;;;;;;;;;;;;;30.64;35.50;100351.19;5127554;27;19923;-70
2021/06/29 08:56:48;;;;;;;;;;;;;;;30.66;35.22;100343.13;5122139;27;19916;-70
2021/06/29 08:59:33;;;;;;;;;;;;;;;30.59;34.61;100343.38;5117128;27;19915;-69
2021/06/29 09:02:18;;;;;;;;;;;;;;;30.67;35.17;100346.69;5127495;27;19916;-69
2021/06/29 09:05:02;;;;;;;;;;;;;;;30.66;34.98;100340.31;5130045;27;20302;-71
2021/06/29 09:07:58;;;;;;;;;;;;;;;30.79;34.48;100348.59;5129106;27;20341;-70
2021/06/29 09:11:02;;;;;;;;;;;;;;;30.87;34.62;100347.09;5132111;27;19928;-70
2021/06/29 09:14:01;;;;;;;;;;;;;;;31.02;33.73;100348.09;5129669;27;19927;-70
2021/06/29 09:16:47;;;;;;;;;;;;;;;30.85;33.31;100343.94;5132854;27;19916;-70
2021/06/29 09:19:35;;;;;;;;;;;;;;;30.98;33.60;100344.63;5127361;27;19916;-70
2021/06/29 09:22:24;;;;;;;;;;;;;;;30.73;34.56;100330.81;5117050;27;19916;-71
2021/06/29 09:25:41;;;;;;;;;;;;;;;30.69;33.93;100333.75;5119414;27;19916;-71
2021/06/29 09:28:28;;;;;;;;;;;;;;;30.82;33.55;100317.59;5088489;27;20371;-71
2021/06/29 09:31:13;;;;;;;;;;;;;;;30.80;34.29;100319.28;5120410;27;19919;-69
2021/06/29 09:34:01;;;;;;;;;;;;;;;30.97;33.27;100317.78;5120926;27;19916;-69
2021/06/29 09:36:46;;;;;;;;;;;;;;;31.26;31.50;100317.38;5111946;27;19932;-69
2021/06/29 09:39:30;;;;;;;;;;;;;;;31.33;31.28;100320.69;5110282;27;19916;-69
2021/06/29 09:42:24;;;;;;;;;;;;;;;31.39;32.48;100304.72;5120075;27;20302;-69
2021/06/29 09:45:27;;;;;;;;;;;;;;;31.48;32.64;100309.59;5127738;27;19915;-70
2021/06/29 09:48:14;;;;;;;;;;;;;;;31.50;32.25;100307.06;5125285;27;19916;-70
2021/06/29 09:51:03;;;;;;;;;;;;;;;30.99;32.74;100313.25;5124150;27;20310;-69
2021/06/29 09:53:51;;;;;;;;;;;;;;;31.38;31.26;100303.19;5126149;27;19916;-70
2021/06/29 09:56:41;;;;;;;;;;;;;;;31.13;32.17;100311.91;5126998;27;19915;-68
2021/06/29 09:59:26;;;;;;;;;;;;;;;31.13;32.14;100308.31;5126359;27;20402;-66
2021/06/29 10:02:11;;;;;;;;;;;;;;;31.36;31.85;100305.69;5126373;27;19915;-66
2021/06/29 10:05:14;;;;;;;;;;;;;;;31.65;29.78;100315.69;5124370;27;19915;-66
2021/06/29 10:07:59;;;;;;;;;;;;;;;31.74;30.17;100324.13;5125592;27;19916;-66
2021/06/29 10:10:43;;;;;;;;;;;;;;;31.73;30.06;100323.34;5129261;27;19927;-66
2021/06/29 10:13:31;;;;;;;;;;;;;;;31.67;29.60;100330.06;5113355;27;19916;-66
2021/06/29 10:16:21;;;;;;;;;;;;;;;31.63;29.04;100321.00;5121051;27;19919;-67
2021/06/29 10:19:16;;;;;;;;;;;;;;;31.91;28.74;100314.09;5123607;27;20375;-67
2021/06/29 10:22:02;;;;;;;;;;;;;;;32.14;28.47;100313.47;5121838;27;20279;-65
2021/06/29 10:24:47;;;;;;;;;;;;;;;32.08;29.95;100320.94;5121910;27;20380;-66
2021/06/29 10:27:32;;;;;;;;;;;;;;;31.92;30.81;100317.69;5114734;27;19916;-66
2021/06/29 10:30:18;;;;;;;;;;;;;;;31.96;31.20;100319.09;5118288;27;19919;-66
2021/06/29 10:33:03;;;;;;;;;;;;;;;31.70;32.34;100329.91;5128825;27;19924;-66
2021/06/29 10:35:48;;;;;;;;;;;;;;;31.88;31.91;100312.25;5123521;27;19915;-66
2021/06/29 10:38:33;;;;;;;;;;;;;;;31.78;32.23;100313.50;5123142;27;19915;-65
2021/06/29 10:41:18;;;;;;;;;;;;;;;31.63;32.18;100313.38;5121555;27;19915;-67
2021/06/29 10:44:08;;;;;;;;;;;;;;;31.39;32.46;100321.59;5119530;27;20383;-64
2021/06/29 10:46:55;;;;;;;;;;;;;;;31.25;32.72;100313.78;5125712;27;19919;-66
2021/06/29 10:49:44;;;;;;;;;;;;;;;30.89;33.63;100316.50;5125958;27;19919;-67
2021/06/29 10:52:33;;;;;;;;;;;;;;;30.72;33.85;100318.03;5117987;27;20291;-66
2021/06/29 10:55:18;;;;;;;;;;;;;;;31.43;33.93;100319.44;5123521;27;19915;-66
2021/06/29 10:58:03;;;;;;;;;;;;;;;31.45;33.17;100318.94;5120303;27;20379;-66
2021/06/29 11:00:47;;;;;;;;;;;;;;;31.60;34.19;100314.28;5113265;27;19916;-67
2021/06/29 11:03:41;;;;;;;;;;;;;;;31.47;33.49;100315.66;5109974;27;19924;-67
2021/06/29 11:06:32;;;;;;;;;;;;;;;31.54;33.42;100309.75;5132628;27;20333;-66
2021/06/29 11:09:21;;;;;;;;;;;;;;;31.73;33.05;100305.69;5132491;27;20298;-66
2021/06/29 11:12:24;;;;;;;;;;;;;;;31.80;32.23;100305.34;5111981;27;20295;-65
2021/06/29 11:15:09;;;;;;;;;;;;;;;31.72;32.03;100304.13;5110975;27;20334;-65
2021/06/29 11:17:56;;;;;;;;;;;;;;;32.11;30.91;100297.50;5114969;27;20305;-65
2021/06/29 11:20:42;;;;;;;;;;;;;;;31.75;32.59;100298.34;5113381;27;19915;-67
2021/06/29 11:23:30;;;;;;;;;;;;;;;31.65;32.75;100301.63;5112629;27;19915;-66
2021/06/29 11:26:18;;;;;;;;;;;;;;;32.01;33.26;100295.16;5120777;27;19915;-66
2021/06/29 11:29:03;;;;;;;;;;;;;;;32.05;32.40;100295.78;5118334;27;19924;-65
2021/06/29 11:31:50;;;;;;;;;;;;;;;32.28;31.86;100295.13;5104377;27;19919;-66
2021/06/29 11:34:34;;;;;;;;;;;;;;;32.08;32.67;100298.44;5121306;27;19920;-66
2021/06/29 11:37:19;;;;;;;;;;;;;;;31.99;31.48;100290.03;5121235;27;19915;-66
2021/06/29 11:40:03;;;;;;;;;;;;;;;31.92;31.63;100293.16;5113195;28;20295;-65
2021/06/29 11:43:27;;;;;;;;;;;;;;;32.18;30.54;100294.38;5117368;28;19916;-65
2021/06/29 11:46:31;;;;;;;;;;;;;;;31.96;31.55;100290.94;5009949;28;19917;-65
2021/06/29 11:49:27;;;;;;;;;;;;;;;32.16;30.75;100271.53;5022451;28;19972;-66
2021/06/29 11:52:17;;;;;;;;;;;;;;;31.91;30.75;100273.94;5106406;28;20291;-66
2021/06/29 11:55:15;;;;;;;;;;;;;;;32.02;30.54;100272.19;5113569;28;19916;-66
2021/06/29 11:58:00;;;;;;;;;;;;;;;32.42;28.57;100265.50;5114327;28;19924;-65
2021/06/29 12:00:46;;;;;;;;;;;;;;;32.28;29.96;100258.53;5112326;28;19919;-65
2021/06/29 12:03:30;;;;;;;;;;;;;;;32.68;28.20;100250.53;5113911;28;19916;-65
2021/06/29 12:06:16;;;;;;;;;;;;;;;32.50;28.75;100239.34;5107865;28;19920;-65
2021/06/29 12:09:02;;;;;;;;;;;;;;;32.32;29.56;100249.91;5108598;28;20400;-66
2021/06/29 12:11:46;;;;;;;;;;;;;;;32.23;29.65;100243.06;5106049;28;19928;-66
2021/06/29 12:14:31;;;;;;;;;;;;;;;31.55;31.42;100241.78;5110825;28;19916;-65
2021/06/29 12:17:18;;;;;;;;;;;;;;;31.83;30.05;100239.75;5109543;28;20313;-66
2021/06/29 12:20:11;;;;;;;;;;;;;;;32.22;28.81;100241.50;5113647;28;19924;-66
2021/06/29 12:22:56;;;;;;;;;;;;;;;31.69;30.98;100234.78;5106048;28;19920;-67
2021/06/29 12:25:42;;;;;;;;;;;;;;;31.64;31.15;100229.78;5112302;28;19916;-66
2021/06/29 12:28:29;;;;;;;;;;;;;;;32.01;29.66;100234.03;5111836;28;20395;-66
2021/06/29 12:31:14;;;;;;;;;;;;;;;31.90;30.87;100230.19;5110298;28;19920;-67
2021/06/29 12:33:59;;;;;;;;;;;;;;;31.47;31.56;100225.72;5112539;28;19916;-67
2021/06/29 12:36:44;;;;;;;;;;;;;;;31.74;30.19;100226.50;5114761;27;19920;-66
2021/06/29 12:39:29;;;;;;;;;;;;;;;30.84;32.41;100227.25;5111016;28;19915;-65
2021/06/29 12:42:14;;;;;;;;;;;;;;;31.30;31.96;100222.44;5111664;28;19915;-67
2021/06/29 12:45:08;;;;;;;;;;;;;;;31.08;32.13;100227.47;5107677;28;19916;-66
2021/06/29 12:48:10;;;;;;;;;;;;;;;30.76;33.41;100217.56;5112881;28;20363;-66
2021/06/29 12:50:57;;;;;;;;;;;;;;;30.56;34.11;100215.19;5098642;28;19924;-65
2021/06/29 12:53:50;;;;;;;;;;;;;;;30.58;33.76;100207.06;5112488;28;19915;-66
2021/06/29 12:56:48;;;;;;;;;;;;;;;30.78;33.30;100212.28;5100243;28;20331;-67
2021/06/29 12:59:34;;;;;;;;;;;;;;;31.20;32.26;100202.00;5113323;28;19915;-66
2021/06/29 13:02:22;;;;;;;;;;;;;;;31.68;31.49;100199.47;5115734;28;19916;-66
2021/06/29 13:05:12;;;;;;;;;;;;;;;31.67;31.25;100195.88;5114936;28;20298;-67
2021/06/29 13:08:29;;;;;;;;;;;;;;;31.78;30.65;100190.53;5100390;27;19919;-67
2021/06/29 13:11:16;;;;;;;;;;;;;;;31.89;31.30;100183.63;5073435;28;19928;-68
2021/06/29 13:14:03;;;;;;;;;;;;;;;31.83;31.10;100183.50;5107282;28;19916;-66
2021/06/29 13:16:47;;;;;;;;;;;;;;;31.87;29.35;100164.41;5115654;28;19916;-68
2021/06/29 13:19:32;;;;;;;;;;;;;;;31.00;32.75;100182.78;5099535;28;20382;-67
2021/06/29 13:22:18;;;;;;;;;;;;;;;30.69;33.18;100179.34;5113143;28;19916;-66
2021/06/29 13:25:03;;;;;;;;;;;;;;;31.12;30.39;100169.88;5111234;28;19916;-67
2021/06/29 13:27:48;;;;;;;;;;;;;;;31.43;27.58;100164.06;5114760;28;19920;-65
2021/06/29 13:30:32;;;;;;;;;;;;;;;31.11;28.93;100154.25;5113157;28;20383;-66
2021/06/29 13:33:17;;;;;;;;;;;;;;;30.93;30.87;100148.63;5095092;28;19916;-66
2021/06/29 13:36:02;;;;;;;;;;;;;;;30.66;31.13;100140.97;5117640;28;20394;-66
2021/06/29 13:38:54;;;;;;;;;;;;;;;30.95;29.18;100152.53;5100705;28;19924;-69
2021/06/29 13:41:39;;;;;;;;;;;;;;;31.72;27.77;100152.28;5109270;28;19915;-65
2021/06/29 13:44:25;;;;;;;;;;;;;;;32.09;26.11;100144.47;5109682;28;19924;-66
2021/06/29 13:47:09;;;;;;;;;;;;;;;31.95;26.96;100148.72;5108842;27;19916;-66
2021/06/29 13:49:58;;;;;;;;;;;;;;;31.47;28.77;100147.00;5114223;27;19920;-67
2021/06/29 13:52:57;;;;;;;;;;;;;;;31.56;28.49;100142.13;5114943;28;19916;-67
2021/06/29 13:55:48;;;;;;;;;;;;;;;31.48;27.52;100135.31;5116393;28;19929;-66
2021/06/29 13:58:34;;;;;;;;;;;;;;;31.88;27.06;100129.41;5115907;28;20383;-67
2021/06/29 14:01:26;;;;;;;;;;;;;;;31.94;26.16;100127.50;5120656;28;19916;-67
2021/06/29 14:04:10;;;;;;;;;;;;;;;32.24;26.72;100125.66;5117583;28;20383;-66
2021/06/29 14:07:07;;;;;;;;;;;;;;;32.40;26.97;100127.28;5115920;28;19923;-66
2021/06/29 14:09:53;;;;;;;;;;;;;;;32.41;26.71;100128.84;5118927;28;19919;-66
2021/06/29 14:12:37;;;;;;;;;;;;;;;31.95;28.92;100131.09;5117338;28;19919;-66
2021/06/29 14:15:22;;;;;;;;;;;;;;;31.35;27.72;100129.06;5112144;28;19920;-67
2021/06/29 14:18:06;;;;;;;;;;;;;;;31.05;30.76;100122.41;5115402;28;19916;-66
2021/06/29 14:20:51;;;;;;;;;;;;;;;30.39;31.66;100138.09;5116531;28;20375;-66